createdAt,value
2018-12-29T00:03:24.507Z,6.70
2018-12-29T00:08:30.826Z,6.70
2018-12-29T00:13:37.495Z,6.70
2018-12-29T00:18:43.951Z,6.70
2018-12-29T00:23:49.769Z,6.70
2018-12-29T00:28:55.105Z,6.70
2018-12-29T00:34:01.270Z,6.70
2018-12-29T00:39:09.057Z,6.70
2018-12-29T00:44:15.430Z,6.70
2018-12-29T00:49:21.866Z,6.70
2018-12-29T00:54:27.360Z,6.70
2018-12-29T00:59:33.529Z,6.70
2018-12-29T01:04:39.360Z,6.70
2018-12-29T01:09:45.623Z,6.80
2018-12-29T01:14:51.418Z,6.80
2018-12-29T01:19:59.522Z,6.80
2018-12-29T01:25:05.103Z,6.70
2018-12-29T01:30:10.585Z,6.80
2018-12-29T01:35:16.533Z,6.80
2018-12-29T01:40:22.893Z,6.70
2018-12-29T01:45:29.272Z,6.70
2018-12-29T01:50:34.856Z,6.70
2018-12-29T01:55:41.363Z,6.70
2018-12-29T02:00:47.819Z,6.80
2018-12-29T02:05:54.024Z,6.70
2018-12-29T02:11:00.397Z,6.70
2018-12-29T02:16:06.493Z,6.70
2018-12-29T02:21:12.274Z,6.80
2018-12-29T02:26:17.835Z,6.80
2018-12-29T02:31:24.226Z,6.80
2018-12-29T02:36:29.896Z,6.90
2018-12-29T02:41:35.471Z,6.90
2018-12-29T02:46:41.062Z,6.90
2018-12-29T02:51:46.498Z,6.90
2018-12-29T02:56:51.676Z,6.80
2018-12-29T03:02:00.314Z,6.80
2018-12-29T03:07:06.622Z,6.80
2018-12-29T03:12:13.346Z,6.80
2018-12-29T03:17:19.120Z,6.80
2018-12-29T03:22:25.953Z,6.80
2018-12-29T03:27:31.221Z,6.80
2018-12-29T03:32:38.954Z,6.80
2018-12-29T03:37:44.761Z,6.80
2018-12-29T03:42:50.073Z,6.80
2018-12-29T03:47:56.052Z,6.80
2018-12-29T03:53:01.451Z,6.80
2018-12-29T03:58:07.437Z,6.80
2018-12-29T04:03:12.670Z,6.70
2018-12-29T04:08:18.803Z,6.70
2018-12-29T04:13:24.857Z,6.70
2018-12-29T04:18:32.885Z,6.70
2018-12-29T04:23:40.745Z,6.70
2018-12-29T04:28:46.701Z,6.70
2018-12-29T04:34:10.680Z,6.70
2018-12-29T04:39:16.827Z,6.70
2018-12-29T04:44:23.849Z,6.70
2018-12-29T04:49:30.098Z,6.70
2018-12-29T04:54:35.673Z,6.70
2018-12-29T04:59:41.999Z,6.70
2018-12-29T05:04:48.012Z,6.70
2018-12-29T05:09:54.427Z,6.80
2018-12-29T05:15:00.047Z,6.80
2018-12-29T05:20:05.937Z,6.80
2018-12-29T05:25:11.758Z,6.80
2018-12-29T05:30:18.042Z,6.80
2018-12-29T05:35:23.585Z,6.80
2018-12-29T05:40:29.962Z,6.80
2018-12-29T05:45:36.243Z,6.80
2018-12-29T05:50:42.408Z,6.80
2018-12-29T05:55:49.319Z,6.90
2018-12-29T06:00:55.105Z,6.80
2018-12-29T06:06:00.211Z,6.80
2018-12-29T06:11:06.027Z,6.80
2018-12-29T06:16:12.337Z,6.80
2018-12-29T06:21:18.770Z,6.80
2018-12-29T06:26:26.562Z,6.90
2018-12-29T06:31:32.196Z,6.90
2018-12-29T06:36:45.097Z,6.90
2018-12-29T06:41:51.405Z,6.90
2018-12-29T06:46:57.932Z,6.90
2018-12-29T06:52:04.157Z,6.90
2018-12-29T06:57:10.494Z,6.90
2018-12-29T07:02:17.768Z,7.00
2018-12-29T07:07:23.049Z,7.00
2018-12-29T07:12:29.148Z,7.00
2018-12-29T07:17:34.780Z,7.00
2018-12-29T07:22:40.582Z,7.00
2018-12-29T07:27:48.128Z,7.10
2018-12-29T07:32:55.170Z,7.10
2018-12-29T07:38:02.452Z,7.10
2018-12-29T07:43:08.301Z,7.20
2018-12-29T07:48:14.057Z,7.20
2018-12-29T07:53:24.024Z,7.20
2018-12-29T07:58:29.911Z,7.20
2018-12-29T08:03:35.762Z,7.20
2018-12-29T08:08:41.292Z,7.30
2018-12-29T08:14:04.178Z,7.30
2018-12-29T08:19:09.722Z,7.30
2018-12-29T08:24:15.635Z,7.30
2018-12-29T08:29:21.223Z,7.50
2018-12-29T08:34:26.516Z,7.50
2018-12-29T08:39:34.659Z,7.40
2018-12-29T08:44:41.559Z,7.40
2018-12-29T08:49:46.723Z,7.40
2018-12-29T08:55:26.045Z,7.50
2018-12-29T09:00:31.641Z,7.50
2018-12-29T09:05:38.357Z,7.50
2018-12-29T09:10:43.937Z,7.50
2018-12-29T09:15:49.065Z,7.50
2018-12-29T09:20:56.408Z,7.50
2018-12-29T09:26:11.435Z,7.50
2018-12-29T09:31:18.239Z,7.50
2018-12-29T09:36:24.563Z,7.60
2018-12-29T09:41:30.957Z,7.60
2018-12-29T09:46:37.229Z,7.60
2018-12-29T09:51:43.410Z,7.60
2018-12-29T09:56:49.402Z,7.60
2018-12-29T10:01:56.102Z,7.70
2018-12-29T10:07:03.278Z,7.70
2018-12-29T10:12:09.854Z,7.70
2018-12-29T10:17:16.154Z,7.80
2018-12-29T10:22:21.348Z,7.90
2018-12-29T10:27:30.431Z,7.90
2018-12-29T10:32:39.101Z,8.00
2018-12-29T10:37:44.833Z,8.00
2018-12-29T10:42:51.787Z,8.00
2018-12-29T10:47:58.683Z,8.10
2018-12-29T10:53:04.156Z,8.10
2018-12-29T10:58:10.144Z,8.20
2018-12-29T11:03:16.067Z,8.20
2018-12-29T11:08:22.030Z,8.20
2018-12-29T11:13:28.168Z,8.20
2018-12-29T11:18:35.013Z,8.20
2018-12-29T11:23:41.302Z,8.20
2018-12-29T11:28:48.181Z,8.30
2018-12-29T11:33:55.017Z,8.30
2018-12-29T11:39:02.706Z,8.30
2018-12-29T11:44:08.457Z,8.30
2018-12-29T11:49:18.223Z,8.30
2018-12-29T11:54:22.703Z,8.30
2018-12-29T11:59:29.673Z,8.30
2018-12-29T12:04:38.678Z,8.30
2018-12-29T12:09:45.343Z,8.40
2018-12-29T12:14:52.391Z,8.30
2018-12-29T12:19:59.687Z,8.40
2018-12-29T12:25:07.641Z,8.40
2018-12-29T12:30:14.249Z,8.40
2018-12-29T12:35:20.500Z,8.40
2018-12-29T12:40:26.397Z,8.50
2018-12-29T12:45:31.864Z,8.60
2018-12-29T12:50:37.990Z,8.60
2018-12-29T12:55:44.492Z,8.70
2018-12-29T13:00:50.718Z,8.70
2018-12-29T13:05:55.871Z,8.80
2018-12-29T13:11:02.182Z,8.70
2018-12-29T13:16:09.017Z,8.80
2018-12-29T13:21:16.557Z,8.80
2018-12-29T13:26:22.634Z,8.80
2018-12-29T13:31:27.690Z,8.80
2018-12-29T13:36:34.554Z,8.80
2018-12-29T13:41:41.967Z,8.70
2018-12-29T13:46:47.304Z,8.80
2018-12-29T13:51:53.303Z,8.80
2018-12-29T13:56:58.788Z,8.80
2018-12-29T14:02:06.193Z,8.80
2018-12-29T14:07:11.710Z,8.80
2018-12-29T14:12:16.948Z,8.80
2018-12-29T14:17:22.966Z,8.80
2018-12-29T14:22:29.393Z,8.80
2018-12-29T14:27:36.532Z,8.80
2018-12-29T14:32:42.848Z,8.80
2018-12-29T14:37:48.741Z,8.70
2018-12-29T14:42:55.118Z,8.70
2018-12-29T14:48:01.841Z,8.70
2018-12-29T14:53:07.303Z,8.70
2018-12-29T14:58:14.035Z,8.70
2018-12-29T15:03:20.813Z,8.70
2018-12-29T15:08:28.151Z,8.70
2018-12-29T15:13:35.298Z,8.70
2018-12-29T15:18:44.027Z,8.70
2018-12-29T15:23:50.256Z,8.70
2018-12-29T15:28:57.659Z,8.70
2018-12-29T15:34:03.506Z,8.70
2018-12-29T15:39:09.270Z,8.70
2018-12-29T15:44:17.333Z,8.60
2018-12-29T15:49:23.611Z,8.60
2018-12-29T15:54:29.164Z,8.60
2018-12-29T15:59:35.057Z,8.50
2018-12-29T16:04:41.261Z,8.50
2018-12-29T16:09:47.385Z,8.50
2018-12-29T16:14:52.959Z,8.50
2018-12-29T16:19:58.324Z,8.50
2018-12-29T16:25:04.598Z,8.50
2018-12-29T16:30:10.887Z,8.40
2018-12-29T16:35:17.606Z,8.40
2018-12-29T16:40:23.437Z,8.40
2018-12-29T16:45:31.625Z,8.40
2018-12-29T16:50:37.286Z,8.40
2018-12-29T16:55:43.481Z,8.40
2018-12-29T17:00:55.597Z,8.40
2018-12-29T17:06:02.441Z,8.40
2018-12-29T17:11:09.093Z,8.50
2018-12-29T17:16:15.883Z,8.50
2018-12-29T17:21:23.074Z,8.50
2018-12-29T17:26:29.102Z,8.50
2018-12-29T17:31:35.897Z,8.50
2018-12-29T17:36:42.912Z,8.50
2018-12-29T17:41:54.754Z,8.50
2018-12-29T17:47:01.126Z,8.60
2018-12-29T17:52:42.280Z,8.60
2018-12-29T17:57:48.665Z,8.60
2018-12-29T18:02:54.826Z,8.70
2018-12-29T18:08:18.290Z,8.70
2018-12-29T18:14:13.301Z,8.80
2018-12-29T18:19:19.879Z,8.80
2018-12-29T18:24:25.817Z,8.80
2018-12-29T18:29:34.896Z,8.80
2018-12-29T18:34:42.455Z,8.80
2018-12-29T18:39:48.008Z,8.80
2018-12-29T18:44:53.797Z,8.90
2018-12-29T18:50:02.388Z,8.90
2018-12-29T18:55:08.149Z,8.90
2018-12-29T19:00:26.797Z,9.00
2018-12-29T19:05:33.073Z,9.00
2018-12-29T19:10:38.516Z,9.00
2018-12-29T19:15:45.001Z,9.10
2018-12-29T19:20:52.085Z,9.10
2018-12-29T19:26:01.828Z,9.10
2018-12-29T19:31:08.800Z,9.20
2018-12-29T19:36:15.819Z,9.20
2018-12-29T19:41:22.251Z,9.30
2018-12-29T19:46:29.389Z,9.30
2018-12-29T19:51:36.547Z,9.40
2018-12-29T19:56:44.065Z,9.40
2018-12-29T20:01:50.718Z,9.50
2018-12-29T20:06:57.695Z,9.50
2018-12-29T20:12:14.677Z,9.60
2018-12-29T20:17:21.335Z,9.60
2018-12-29T20:22:29.071Z,9.70
2018-12-29T20:27:38.130Z,9.70
2018-12-29T20:32:45.802Z,9.80
2018-12-29T20:37:53.757Z,9.80
2018-12-29T20:43:03.286Z,9.90
2018-12-29T20:48:11.270Z,9.90
2018-12-29T20:53:18.872Z,9.90
2018-12-29T20:58:24.794Z,9.90
2018-12-29T21:03:33.246Z,10.00
2018-12-29T21:08:39.251Z,10.00
2018-12-29T21:13:46.923Z,10.00
2018-12-29T21:18:54.001Z,10.00
2018-12-29T21:24:02.242Z,10.00
2018-12-29T21:29:11.364Z,10.00
2018-12-29T21:34:18.204Z,10.00
2018-12-29T21:39:32.073Z,10.00
2018-12-29T21:44:37.887Z,9.90
2018-12-29T21:49:46.071Z,9.90
2018-12-29T21:54:51.697Z,9.90
2018-12-29T22:00:04.537Z,9.90
2018-12-29T22:05:11.890Z,9.80
2018-12-29T22:10:19.774Z,9.80
2018-12-29T22:15:26.105Z,9.80
2018-12-29T22:20:33.381Z,9.80
2018-12-29T22:25:47.865Z,9.80
2018-12-29T22:30:47.888Z,9.70
2018-12-29T22:35:53.666Z,9.80
2018-12-29T22:41:00.331Z,9.70
2018-12-29T22:46:05.535Z,9.70
2018-12-29T22:51:11.986Z,9.70
2018-12-29T22:56:18.967Z,9.70
2018-12-29T23:01:24.805Z,9.70
2018-12-29T23:06:30.733Z,9.70
2018-12-29T23:11:37.152Z,9.70
2018-12-29T23:16:43.818Z,9.70
2018-12-29T23:21:51.436Z,9.70
2018-12-29T23:26:58.221Z,9.70
2018-12-29T23:32:04.255Z,9.70
2018-12-29T23:37:10.451Z,9.70
2018-12-29T23:42:16.328Z,9.70
2018-12-29T23:47:22.477Z,9.70
2018-12-29T23:52:28.806Z,9.80
2018-12-29T23:57:36.444Z,9.70
